Time;durP1;ratioP1;P1;durP2;ratioP2;P2;SDS_P1;SDS_P2;PMS_P1;PMS_P2;Temp;Humidity;BMP_temperature;BMP_pressure;BME280_temperature;BME280_humidity;BME280_pressure;Samples;Min_cycle;Max_cycle;Signal;HPM_P1;HPM_P2
2021/08/02 00:01:58;;;;;;;;;;;21.80;76.30;;;;;;5070816;28;1157;-72
2021/08/02 00:04:24;;;;;;;;;;;21.70;76.20;;;;;;5070250;28;1092;-72
2021/08/02 00:06:53;;;;;;;;;;;21.80;76.30;;;;;;5070765;28;1086;-72
2021/08/02 00:09:22;;;;;;;;;;;21.70;76.20;;;;;;5072310;28;1086;-72
2021/08/02 00:11:55;;;;;;;;;;;21.80;76.30;;;;;;5070466;28;1384;-72
2021/08/02 00:14:21;;;;;;;;;;;21.80;76.30;;;;;;5070639;28;1902;-71
2021/08/02 00:16:47;;;;;;;;;;;21.80;76.30;;;;;;5072087;28;1075;-72
2021/08/02 00:19:12;;;;;;;;;;;21.70;76.20;;;;;;5070954;28;1107;-72
2021/08/02 00:21:38;;;;;;;;;;;21.70;76.20;;;;;;5071652;28;1290;-72
2021/08/02 00:24:04;;;;;;;;;;;21.70;76.20;;;;;;5070231;28;1098;-72
2021/08/02 00:26:29;;;;;;;;;;;21.80;76.30;;;;;;5071692;28;1149;-71
2021/08/02 00:28:55;;;;;;;;;;;21.70;76.20;;;;;;5069246;28;1146;-72
2021/08/02 00:31:20;;;;;;;;;;;21.70;76.30;;;;;;5071769;28;1350;-71
2021/08/02 00:33:45;;;;;;;;;;;21.80;76.30;;;;;;5075305;28;1897;-71
2021/08/02 00:36:17;;;;;;;;;;;21.70;76.20;;;;;;5075231;28;1051;-71
2021/08/02 00:38:48;;;;;;;;;;;21.80;76.30;;;;;;5075724;28;1067;-71
2021/08/02 00:41:16;;;;;;;;;;;21.70;76.20;;;;;;5075717;28;1176;-72
2021/08/02 00:43:48;;;;;;;;;;;21.70;76.30;;;;;;5075586;28;1133;-72
2021/08/02 00:46:13;;;;;;;;;;;21.80;76.30;;;;;;5048156;28;1123;-72
2021/08/02 00:48:40;;;;;;;;;;;21.80;76.30;;;;;;5074197;28;1549;-72
2021/08/02 00:51:05;;;;;;;;;;;21.70;77.10;;;;;;5073727;28;1284;-72
2021/08/02 00:53:31;;;;;;;;;;;21.70;76.30;;;;;;5060388;28;1979;-71
2021/08/02 00:56:00;;;;;;;;;;;21.70;76.30;;;;;;5073612;28;1102;-72
2021/08/02 00:58:26;;;;;;;;;;;21.70;76.30;;;;;;5075086;28;1099;-72
2021/08/02 01:00:51;;;;;;;;;;;21.70;76.30;;;;;;5073692;28;1231;-72
2021/08/02 01:03:17;;;;;;;;;;;21.70;76.30;;;;;;5073820;28;1067;-71
2021/08/02 01:05:44;;;;;;;;;;;21.70;76.30;;;;;;5072085;28;1504;-72
2021/08/02 01:08:13;;;;;;;;;;;21.70;76.30;;;;;;5074859;28;1088;-72
2021/08/02 01:10:42;;;;;;;;;;;21.70;76.30;;;;;;5074513;28;1373;-71
2021/08/02 01:13:08;;;;;;;;;;;21.70;76.40;;;;;;5073274;28;1898;-72
2021/08/02 01:15:33;;;;;;;;;;;21.70;76.30;;;;;;5074206;28;1054;-71
2021/08/02 01:17:59;;;;;;;;;;;21.80;76.40;;;;;;5073478;28;1134;-72
2021/08/02 01:20:25;;;;;;;;;;;21.70;76.30;;;;;;5073301;28;1274;-71
2021/08/02 01:22:50;;;;;;;;;;;21.70;76.40;;;;;;5076771;28;1063;-72
2021/08/02 01:25:45;;;;;;;;;;;21.80;76.40;;;;;;5073914;28;1079;-72
2021/08/02 01:28:13;;;;;;;;;;;21.70;76.30;;;;;;5069509;28;1242;-71
2021/08/02 01:30:39;;;;;;;;;;;21.70;76.30;;;;;;5074251;28;1283;-71
2021/08/02 01:33:04;;;;;;;;;;;21.70;76.30;;;;;;5074666;28;1886;-71
2021/08/02 01:35:30;;;;;;;;;;;21.70;76.30;;;;;;5074633;28;1107;-72
2021/08/02 01:37:55;;;;;;;;;;;21.70;76.40;;;;;;5073223;28;1099;-71
2021/08/02 01:40:20;;;;;;;;;;;21.70;76.40;;;;;;5072958;28;1295;-72
2021/08/02 01:42:46;;;;;;;;;;;21.70;76.40;;;;;;5074034;28;1110;-72
2021/08/02 01:45:11;;;;;;;;;;;21.70;76.40;;;;;;5059835;28;1122;-72
2021/08/02 01:47:43;;;;;;;;;;;21.70;76.40;;;;;;5071929;28;1127;-72
2021/08/02 01:50:18;;;;;;;;;;;21.70;76.40;;;;;;5072894;28;1286;-72
2021/08/02 01:53:06;;;;;;;;;;;21.70;76.40;;;;;;5072436;28;1910;-72
2021/08/02 01:55:31;;;;;;;;;;;21.70;76.40;;;;;;5072236;28;1102;-73
2021/08/02 01:58:02;;;;;;;;;;;21.70;76.40;;;;;;5072770;28;1138;-73
2021/08/02 02:00:28;;;;;;;;;;;21.70;76.40;;;;;;5073783;28;1289;-73
2021/08/02 02:02:55;;;;;;;;;;;21.70;76.40;;;;;;5073934;28;1078;-73
2021/08/02 02:05:21;;;;;;;;;;;21.70;76.40;;;;;;5071665;28;1137;-73
2021/08/02 02:07:50;;;;;;;;;;;21.70;76.40;;;;;;5072507;28;1130;-73
2021/08/02 02:10:16;;;;;;;;;;;21.70;76.40;;;;;;5072460;28;1738;-73
2021/08/02 02:12:42;;;;;;;;;;;21.70;76.40;;;;;;5072713;28;1906;-73
2021/08/02 02:15:07;;;;;;;;;;;21.70;76.50;;;;;;5071359;28;1158;-73
2021/08/02 02:17:33;;;;;;;;;;;21.70;77.20;;;;;;5072568;28;1064;-73
2021/08/02 02:19:59;;;;;;;;;;;21.70;76.40;;;;;;5072294;28;1360;-73
2021/08/02 02:22:24;;;;;;;;;;;21.70;76.50;;;;;;5072297;28;1086;-73
2021/08/02 02:24:50;;;;;;;;;;;21.70;76.40;;;;;;5054776;28;1107;-73
2021/08/02 02:27:16;;;;;;;;;;;21.70;76.50;;;;;;5072143;28;1081;-73
2021/08/02 02:29:41;;;;;;;;;;;21.70;76.50;;;;;;5069925;28;1190;-73
2021/08/02 02:32:07;;;;;;;;;;;21.70;76.50;;;;;;5072120;28;1259;-73
2021/08/02 02:34:33;;;;;;;;;;;21.70;76.50;;;;;;5071014;28;1890;-73
2021/08/02 02:36:58;;;;;;;;;;;21.70;76.50;;;;;;5073166;28;1098;-72
2021/08/02 02:39:25;;;;;;;;;;;21.70;76.50;;;;;;5072033;28;1107;-73
2021/08/02 02:41:50;;;;;;;;;;;21.70;76.50;;;;;;5071624;28;1302;-73
2021/08/02 02:44:15;;;;;;;;;;;21.70;76.50;;;;;;5066888;28;1105;-73
2021/08/02 02:46:41;;;;;;;;;;;21.70;76.50;;;;;;5063957;28;1190;-73
2021/08/02 02:49:07;;;;;;;;;;;21.70;76.50;;;;;;5072882;28;1137;-73
2021/08/02 02:51:32;;;;;;;;;;;21.70;76.50;;;;;;5071418;28;1260;-73
2021/08/02 02:53:58;;;;;;;;;;;21.70;76.50;;;;;;5071037;28;1898;-73
2021/08/02 02:56:24;;;;;;;;;;;21.70;76.50;;;;;;5070792;28;1090;-73
2021/08/02 02:58:49;;;;;;;;;;;21.70;76.60;;;;;;5071657;28;1110;-73
2021/08/02 03:01:15;;;;;;;;;;;21.70;76.50;;;;;;5072511;28;1275;-73
2021/08/02 03:03:42;;;;;;;;;;;21.70;76.50;;;;;;5071501;28;1098;-73
2021/08/02 03:06:08;;;;;;;;;;;21.70;76.50;;;;;;5072881;28;1153;-73
2021/08/02 03:08:34;;;;;;;;;;;21.70;76.60;;;;;;5073257;28;1078;-73
2021/08/02 03:10:59;;;;;;;;;;;21.70;76.50;;;;;;5072383;28;1209;-73
2021/08/02 03:13:26;;;;;;;;;;;21.70;76.50;;;;;;5071349;28;1909;-73
2021/08/02 03:15:52;;;;;;;;;;;21.70;76.50;;;;;;5071939;28;1097;-73
2021/08/02 03:18:17;;;;;;;;;;;21.70;76.60;;;;;;5071174;28;1098;-73
2021/08/02 03:20:42;;;;;;;;;;;21.80;76.60;;;;;;5072509;28;1306;-73
2021/08/02 03:23:10;;;;;;;;;;;21.70;76.60;;;;;;5072655;28;1051;-73
2021/08/02 03:25:40;;;;;;;;;;;21.70;76.60;;;;;;5070604;28;1078;-73
2021/08/02 03:28:11;;;;;;;;;;;21.70;76.60;;;;;;5067333;28;1090;-73
2021/08/02 03:30:37;;;;;;;;;;;21.70;76.60;;;;;;5071164;28;1269;-73
2021/08/02 03:33:02;;;;;;;;;;;21.70;76.60;;;;;;5071325;28;1959;-73
2021/08/02 03:35:28;;;;;;;;;;;21.70;76.60;;;;;;5070145;28;1074;-73
2021/08/02 03:37:53;;;;;;;;;;;21.70;76.60;;;;;;5071366;28;1190;-73
2021/08/02 03:40:19;;;;;;;;;;;21.70;76.60;;;;;;5071344;28;1278;-73
2021/08/02 03:42:44;;;;;;;;;;;21.70;76.60;;;;;;5070386;28;1119;-73
2021/08/02 03:45:10;;;;;;;;;;;21.70;76.70;;;;;;5058559;28;1137;-73
2021/08/02 03:47:35;;;;;;;;;;;21.70;76.70;;;;;;5069438;28;1158;-73
2021/08/02 03:50:00;;;;;;;;;;;21.70;76.60;;;;;;5072525;28;1201;-73
2021/08/02 03:52:26;;;;;;;;;;;21.70;76.60;;;;;;5070353;28;1083;-73
2021/08/02 03:54:51;;;;;;;;;;;21.70;76.70;;;;;;5071514;28;1971;-73
2021/08/02 03:57:17;;;;;;;;;;;21.70;76.60;;;;;;5071574;28;1158;-73
2021/08/02 03:59:42;;;;;;;;;;;21.70;76.70;;;;;;5072589;28;1286;-73
2021/08/02 04:02:08;;;;;;;;;;;21.70;76.70;;;;;;5070945;28;1698;-73
2021/08/02 04:04:33;;;;;;;;;;;21.70;76.70;;;;;;5071455;28;1039;-73
2021/08/02 04:06:59;;;;;;;;;;;21.70;76.70;;;;;;5072813;28;1177;-73
2021/08/02 04:09:24;;;;;;;;;;;21.70;76.70;;;;;;5076291;28;1086;-73
2021/08/02 04:11:51;;;;;;;;;;;21.70;76.70;;;;;;5074694;28;1290;-73
2021/08/02 04:14:16;;;;;;;;;;;21.70;76.70;;;;;;5074867;28;1961;-73
2021/08/02 04:16:42;;;;;;;;;;;21.70;76.70;;;;;;5075985;28;1098;-74
2021/08/02 04:19:07;;;;;;;;;;;21.70;76.70;;;;;;5075994;28;1087;-73
2021/08/02 04:21:33;;;;;;;;;;;21.70;76.70;;;;;;5075642;28;1287;-73
2021/08/02 04:23:58;;;;;;;;;;;21.70;76.70;;;;;;5075285;28;1067;-72
2021/08/02 04:26:24;;;;;;;;;;;21.70;76.70;;;;;;5075076;28;956;-73
2021/08/02 04:28:55;;;;;;;;;;;21.70;76.80;;;;;;5073724;28;1197;-73
2021/08/02 04:31:21;;;;;;;;;;;21.70;76.80;;;;;;5074492;28;1386;-73
2021/08/02 04:33:46;;;;;;;;;;;21.70;76.80;;;;;;5074343;28;1898;-73
2021/08/02 04:36:12;;;;;;;;;;;21.70;76.70;;;;;;5075135;28;1128;-72
2021/08/02 04:38:37;;;;;;;;;;;21.70;76.70;;;;;;5075472;28;1102;-73
2021/08/02 04:41:03;;;;;;;;;;;21.70;76.70;;;;;;5075193;28;1369;-73
2021/08/02 04:43:28;;;;;;;;;;;21.70;76.80;;;;;;5075605;28;1123;-73
2021/08/02 04:45:53;;;;;;;;;;;21.70;76.70;;;;;;5060578;28;1192;-72
2021/08/02 04:48:19;;;;;;;;;;;21.70;76.70;;;;;;5074223;28;1141;-73
2021/08/02 04:50:46;;;;;;;;;;;21.70;76.80;;;;;;5074976;28;1256;-72
2021/08/02 04:53:11;;;;;;;;;;;21.70;76.80;;;;;;5074545;28;1902;-73
2021/08/02 04:55:37;;;;;;;;;;;21.70;76.70;;;;;;5073067;28;1090;-73
2021/08/02 04:58:02;;;;;;;;;;;21.70;76.80;;;;;;5075461;28;1134;-73
2021/08/02 05:00:27;;;;;;;;;;;21.70;76.80;;;;;;5073573;28;1253;-72
2021/08/02 05:02:53;;;;;;;;;;;21.70;76.80;;;;;;5073988;28;1070;-72
2021/08/02 05:05:18;;;;;;;;;;;21.70;76.80;;;;;;5074169;28;1099;-73
2021/08/02 05:07:44;;;;;;;;;;;21.70;76.80;;;;;;5073262;28;1098;-73
2021/08/02 05:10:09;;;;;;;;;;;21.70;76.80;;;;;;5074797;28;1271;-73
2021/08/02 05:12:35;;;;;;;;;;;21.70;76.80;;;;;;5088767;22;2221;-66
2021/08/02 05:15:04;;;;;;;;;;;21.70;76.80;;;;;;5066870;28;1972;-67
2021/08/02 05:17:29;;;;;;;;;;;21.70;76.80;;;;;;5058918;28;1220;-66
2021/08/02 05:19:55;;;;;;;;;;;21.70;76.80;;;;;;5070107;28;1107;-66
2021/08/02 05:22:20;;;;;;;;;;;21.70;76.60;;;;;;5074334;28;1228;-66
2021/08/02 05:24:45;;;;;;;;;;;21.70;73.60;;;;;;5073716;28;1138;-65
2021/08/02 05:27:11;;;;;;;;;;;21.70;73.20;;;;;;5074706;28;1063;-65
2021/08/02 05:29:36;;;;;;;;;;;21.70;74.40;;;;;;5071941;28;1177;-65
2021/08/02 05:32:02;;;;;;;;;;;21.60;74.50;;;;;;5074231;28;1306;-66
2021/08/02 05:34:27;;;;;;;;;;;21.60;74.40;;;;;;5074481;28;1902;-65
2021/08/02 05:36:53;;;;;;;;;;;21.60;74.70;;;;;;5074590;28;1083;-65
2021/08/02 05:39:18;;;;;;;;;;;21.60;74.80;;;;;;5067109;28;1351;-66
2021/08/02 05:41:44;;;;;;;;;;;21.60;74.40;;;;;;5057026;28;1335;-65
2021/08/02 05:44:09;;;;;;;;;;;21.60;74.30;;;;;;5068801;28;1050;-65
2021/08/02 05:46:34;;;;;;;;;;;21.70;74.40;;;;;;5063417;28;1246;-65
2021/08/02 05:49:00;;;;;;;;;;;21.70;74.20;;;;;;5071833;28;1157;-65
2021/08/02 05:51:25;;;;;;;;;;;21.70;74.20;;;;;;5072008;28;1345;-64
2021/08/02 05:53:51;;;;;;;;;;;21.70;74.30;;;;;;5059362;28;1961;-65
2021/08/02 05:56:17;;;;;;;;;;;21.70;74.30;;;;;;5072354;28;1079;-65
2021/08/02 05:58:42;;;;;;;;;;;21.70;74.10;;;;;;5073173;28;968;-65
2021/08/02 06:01:08;;;;;;;;;;;21.60;74.20;;;;;;5071933;28;1321;-65
2021/08/02 06:03:33;;;;;;;;;;;21.70;74.30;;;;;;5072710;28;1114;-65
2021/08/02 06:05:59;;;;;;;;;;;21.70;74.40;;;;;;5070752;28;1094;-65
2021/08/02 06:08:24;;;;;;;;;;;21.70;74.20;;;;;;5072979;28;1078;-66
2021/08/02 06:10:50;;;;;;;;;;;21.70;74.40;;;;;;5072469;28;1282;-65
2021/08/02 06:13:15;;;;;;;;;;;21.70;74.10;;;;;;5071091;28;1909;-65
2021/08/02 06:15:41;;;;;;;;;;;21.70;74.20;;;;;;5072343;28;1059;-66
2021/08/02 06:18:06;;;;;;;;;;;21.70;74.70;;;;;;5073522;28;1083;-66
2021/08/02 06:20:32;;;;;;;;;;;21.70;74.20;;;;;;5073466;28;1375;-67
2021/08/02 06:22:57;;;;;;;;;;;21.70;74.50;;;;;;5073251;28;1111;-67
2021/08/02 06:25:23;;;;;;;;;;;21.70;74.40;;;;;;5073126;28;1095;-68
2021/08/02 06:27:48;;;;;;;;;;;21.70;74.30;;;;;;5069726;28;1154;-67
2021/08/02 06:30:13;;;;;;;;;;;21.70;74.30;;;;;;5070956;28;1204;-67
2021/08/02 06:32:39;;;;;;;;;;;21.70;74.20;;;;;;5073324;28;1223;-67
2021/08/02 06:35:04;;;;;;;;;;;21.70;74.40;;;;;;5072682;28;1950;-67
2021/08/02 06:37:30;;;;;;;;;;;21.70;74.20;;;;;;5073304;28;1088;-67
2021/08/02 06:39:55;;;;;;;;;;;21.70;74.40;;;;;;5072969;28;1137;-67
2021/08/02 06:42:21;;;;;;;;;;;21.70;74.40;;;;;;5072357;28;1219;-67
2021/08/02 06:44:46;;;;;;;;;;;21.70;74.30;;;;;;5063972;28;1090;-67
2021/08/02 06:47:12;;;;;;;;;;;21.70;74.40;;;;;;5068370;28;1162;-67
2021/08/02 06:49:37;;;;;;;;;;;21.70;74.50;;;;;;5072786;28;1066;-65
2021/08/02 06:52:03;;;;;;;;;;;21.70;74.40;;;;;;5070452;28;1268;-65
2021/08/02 06:54:28;;;;;;;;;;;21.70;74.20;;;;;;5058057;28;1965;-67
2021/08/02 06:56:53;;;;;;;;;;;21.70;74.10;;;;;;5072215;28;1070;-65
2021/08/02 06:59:19;;;;;;;;;;;21.70;74.20;;;;;;5064422;28;1200;-66
2021/08/02 07:01:44;;;;;;;;;;;21.70;74.40;;;;;;5053736;28;1568;-66
2021/08/02 07:04:10;;;;;;;;;;;21.70;74.50;;;;;;5050612;28;1251;-67
2021/08/02 07:06:35;;;;;;;;;;;21.70;74.80;;;;;;5051094;28;1248;-66
2021/08/02 07:09:01;;;;;;;;;;;21.70;75.10;;;;;;5054246;28;1255;-67
2021/08/02 07:11:26;;;;;;;;;;;21.70;75.40;;;;;;5051571;28;1286;-67
2021/08/02 07:13:54;;;;;;;;;;;21.70;75.40;;;;;;5059743;28;1906;-67
2021/08/02 07:16:20;;;;;;;;;;;21.80;75.60;;;;;;5065539;28;1591;-67
2021/08/02 07:18:45;;;;;;;;;;;21.80;75.60;;;;;;5064009;28;1051;-67
2021/08/02 07:21:10;;;;;;;;;;;21.80;75.60;;;;;;5070891;28;1332;-67
2021/08/02 07:23:37;;;;;;;;;;;21.80;75.50;;;;;;5072677;28;924;-67
2021/08/02 07:26:02;;;;;;;;;;;21.80;75.60;;;;;;5071100;28;1095;-67
2021/08/02 07:28:28;;;;;;;;;;;21.80;75.80;;;;;;5070371;28;1161;-67
2021/08/02 07:30:53;;;;;;;;;;;21.80;76.00;;;;;;5071861;28;1341;-66
2021/08/02 07:33:18;;;;;;;;;;;21.80;76.20;;;;;;5072208;28;1906;-66
2021/08/02 07:35:44;;;;;;;;;;;21.80;76.30;;;;;;5071675;28;1026;-67
2021/08/02 07:38:09;;;;;;;;;;;21.80;76.40;;;;;;5071942;28;1153;-67
2021/08/02 07:40:35;;;;;;;;;;;21.80;76.60;;;;;;5070601;28;1700;-67
2021/08/02 07:43:00;;;;;;;;;;;21.80;76.70;;;;;;5072334;28;1052;-67
2021/08/02 07:45:26;;;;;;;;;;;21.80;76.80;;;;;;5057531;28;1141;-67
2021/08/02 07:47:51;;;;;;;;;;;21.80;77.00;;;;;;5072193;28;1038;-67
2021/08/02 07:50:16;;;;;;;;;;;21.80;77.20;;;;;;5070832;28;1122;-66
2021/08/02 07:52:45;;;;;;;;;;;21.80;77.20;;;;;;5071426;28;1174;-67
2021/08/02 07:55:11;;;;;;;;;;;21.90;77.40;;;;;;5071300;28;1898;-67
2021/08/02 07:57:36;;;;;;;;;;;21.90;77.60;;;;;;5071925;28;1102;-67
2021/08/02 08:00:08;;;;;;;;;;;21.90;77.70;;;;;;5072448;28;1091;-66
2021/08/02 08:02:33;;;;;;;;;;;21.90;77.90;;;;;;5070909;28;1200;-67
2021/08/02 08:04:59;;;;;;;;;;;21.90;77.80;;;;;;5070084;28;1082;-67
2021/08/02 08:07:24;;;;;;;;;;;21.90;77.70;;;;;;5071968;28;1062;-67
2021/08/02 08:09:49;;;;;;;;;;;21.90;77.70;;;;;;5071910;28;1138;-67
2021/08/02 08:12:15;;;;;;;;;;;21.90;77.60;;;;;;5071735;28;1160;-67
2021/08/02 08:14:40;;;;;;;;;;;21.90;77.70;;;;;;5071020;28;1911;-67
2021/08/02 08:17:06;;;;;;;;;;;21.90;77.90;;;;;;5071824;28;1059;-67
2021/08/02 08:19:31;;;;;;;;;;;21.90;78.00;;;;;;5071975;28;1086;-66
2021/08/02 08:21:57;;;;;;;;;;;21.90;78.10;;;;;;5071177;28;1272;-67
2021/08/02 08:24:23;;;;;;;;;;;21.90;78.10;;;;;;5070816;28;1078;-67
2021/08/02 08:26:48;;;;;;;;;;;21.90;77.90;;;;;;5071482;28;1055;-67
2021/08/02 08:29:14;;;;;;;;;;;21.90;77.90;;;;;;5069353;28;1197;-67
2021/08/02 08:31:39;;;;;;;;;;;21.90;77.90;;;;;;5071820;28;1283;-67
2021/08/02 08:34:05;;;;;;;;;;;21.90;77.90;;;;;;5070894;28;1890;-67
2021/08/02 08:36:31;;;;;;;;;;;21.90;77.90;;;;;;5071308;28;1168;-67
2021/08/02 08:38:56;;;;;;;;;;;21.90;77.90;;;;;;5071832;28;1118;-67
2021/08/02 08:41:22;;;;;;;;;;;21.90;77.90;;;;;;5071628;28;1205;-67
2021/08/02 08:43:51;;;;;;;;;;;21.90;78.10;;;;;;5070217;28;1142;-68
2021/08/02 08:46:17;;;;;;;;;;;21.90;78.10;;;;;;5058083;28;1083;-67
2021/08/02 08:48:43;;;;;;;;;;;21.90;78.10;;;;;;5071623;28;1150;-67
2021/08/02 08:51:11;;;;;;;;;;;21.90;78.10;;;;;;5071775;28;1274;-67
2021/08/02 08:53:37;;;;;;;;;;;22.00;78.20;;;;;;5073366;28;1975;-68
2021/08/02 08:56:02;;;;;;;;;;;21.90;78.20;;;;;;5075495;28;1071;-67
2021/08/02 08:58:28;;;;;;;;;;;21.90;78.30;;;;;;5075284;28;1163;-67
2021/08/02 09:01:03;;;;;;;;;;;21.90;78.40;;;;;;5075209;28;1369;-67
2021/08/02 09:03:29;;;;;;;;;;;21.90;78.50;;;;;;5075013;28;1091;-68
2021/08/02 09:06:01;;;;;;;;;;;22.00;78.80;;;;;;5074367;28;1063;-68
2021/08/02 09:08:27;;;;;;;;;;;22.00;79.10;;;;;;5073854;28;1063;-67
2021/08/02 09:10:58;;;;;;;;;;;22.00;79.20;;;;;;5074849;28;1345;-66
2021/08/02 09:13:33;;;;;;;;;;;22.00;79.20;;;;;;5074699;28;1909;-66
2021/08/02 09:16:09;;;;;;;;;;;22.00;79.40;;;;;;5074514;28;1585;-66
2021/08/02 09:18:34;;;;;;;;;;;22.00;79.50;;;;;;5074838;28;1655;-66
2021/08/02 09:21:00;;;;;;;;;;;22.00;79.70;;;;;;5075091;28;1290;-67
2021/08/02 09:23:26;;;;;;;;;;;22.00;80.00;;;;;;5073856;28;2258;-66
2021/08/02 09:25:52;;;;;;;;;;;22.00;80.70;;;;;;5074345;28;1402;-66
2021/08/02 09:28:21;;;;;;;;;;;22.00;80.20;;;;;;5071884;28;1648;-66
2021/08/02 09:31:00;;;;;;;;;;;22.00;80.10;;;;;;5073346;28;1622;-67
2021/08/02 09:33:26;;;;;;;;;;;22.00;80.20;;;;;;5074562;28;1955;-66
2021/08/02 09:35:51;;;;;;;;;;;22.00;80.10;;;;;;5074416;28;1661;-66
2021/08/02 09:38:17;;;;;;;;;;;22.00;80.00;;;;;;5074719;28;1586;-67
2021/08/02 09:40:43;;;;;;;;;;;22.00;80.00;;;;;;5072896;28;1485;-67
2021/08/02 09:43:09;;;;;;;;;;;22.00;80.00;;;;;;5074344;28;1387;-66
2021/08/02 09:45:47;;;;;;;;;;;22.00;79.90;;;;;;5059165;28;1629;-67
2021/08/02 09:48:17;;;;;;;;;;;22.00;79.80;;;;;;5074731;28;1621;-66
2021/08/02 09:50:43;;;;;;;;;;;22.00;79.70;;;;;;5074387;28;1725;-66
2021/08/02 09:53:12;;;;;;;;;;;22.00;79.70;;;;;;5072835;28;1902;-66
2021/08/02 09:55:39;;;;;;;;;;;22.00;79.60;;;;;;5073336;28;1784;-66
2021/08/02 09:58:04;;;;;;;;;;;22.00;79.70;;;;;;5074251;28;1680;-67
2021/08/02 10:00:31;;;;;;;;;;;22.00;79.60;;;;;;5072740;28;1622;-66
2021/08/02 10:02:57;;;;;;;;;;;22.00;79.70;;;;;;5073164;28;1071;-66
2021/08/02 10:05:22;;;;;;;;;;;22.00;79.80;;;;;;5073873;28;1617;-67
2021/08/02 10:07:48;;;;;;;;;;;22.00;79.70;;;;;;5073971;28;1383;-66
2021/08/02 10:10:13;;;;;;;;;;;22.00;79.80;;;;;;5074255;28;1604;-66
2021/08/02 10:12:39;;;;;;;;;;;22.00;79.70;;;;;;5073840;28;1219;-66
2021/08/02 10:15:06;;;;;;;;;;;22.10;79.80;;;;;;5071309;28;1906;-66
2021/08/02 10:17:31;;;;;;;;;;;22.00;79.70;;;;;;5072989;28;1592;-66
2021/08/02 10:19:57;;;;;;;;;;;22.00;79.60;;;;;;5072727;28;1694;-66
2021/08/02 10:22:22;;;;;;;;;;;22.10;79.70;;;;;;5072437;28;1610;-66
2021/08/02 10:24:51;;;;;;;;;;;22.00;79.70;;;;;;5071710;28;1684;-66
2021/08/02 10:27:23;;;;;;;;;;;22.10;79.80;;;;;;5073095;28;1285;-67
2021/08/02 10:29:49;;;;;;;;;;;22.00;80.00;;;;;;5072405;28;1694;-67
2021/08/02 10:32:24;;;;;;;;;;;22.10;80.20;;;;;;5072261;28;2017;-66
2021/08/02 10:34:50;;;;;;;;;;;22.00;80.30;;;;;;5054701;28;1894;-67
2021/08/02 10:37:15;;;;;;;;;;;22.00;80.30;;;;;;5048728;28;1547;-66
2021/08/02 10:39:40;;;;;;;;;;;22.10;80.50;;;;;;5058219;28;1715;-67
2021/08/02 10:42:09;;;;;;;;;;;22.10;80.30;;;;;;5072216;28;1428;-67
2021/08/02 10:44:35;;;;;;;;;;;22.10;80.70;;;;;;5064770;28;1568;-67
2021/08/02 10:47:05;;;;;;;;;;;22.00;79.70;;;;;;5066887;28;1500;-67
2021/08/02 10:49:30;;;;;;;;;;;22.00;79.60;;;;;;5072089;28;1406;-66
2021/08/02 10:51:56;;;;;;;;;;;22.00;79.50;;;;;;5071565;28;1601;-66
2021/08/02 10:54:22;;;;;;;;;;;22.10;79.50;;;;;;5072294;28;1969;-66
2021/08/02 10:56:50;;;;;;;;;;;22.10;79.40;;;;;;5073000;28;1363;-67
2021/08/02 10:59:16;;;;;;;;;;;22.00;79.40;;;;;;5071566;28;1666;-67
2021/08/02 11:01:49;;;;;;;;;;;22.10;79.40;;;;;;5071562;28;1629;-66
2021/08/02 11:04:14;;;;;;;;;;;22.10;79.50;;;;;;5072293;28;1617;-67
2021/08/02 11:06:40;;;;;;;;;;;22.00;79.50;;;;;;5071017;28;1132;-67
2021/08/02 11:09:05;;;;;;;;;;;22.10;79.60;;;;;;5071774;28;1668;-66
2021/08/02 11:11:31;;;;;;;;;;;22.00;79.50;;;;;;5082591;22;3898;-72
2021/08/02 11:14:04;;;;;;;;;;;22.00;79.50;;;;;;5066972;28;1906;-71
2021/08/02 11:16:34;;;;;;;;;;;22.10;79.50;;;;;;5033909;28;1716;-70
2021/08/02 11:19:00;;;;;;;;;;;22.10;80.30;;;;;;5035205;28;1703;-70
2021/08/02 11:21:26;;;;;;;;;;;22.10;79.90;;;;;;5052480;28;1724;-70
2021/08/02 11:23:51;;;;;;;;;;;22.10;79.80;;;;;;5042860;28;1362;-71
2021/08/02 11:26:17;;;;;;;;;;;22.10;79.90;;;;;;5014192;28;1426;-71
2021/08/02 11:28:43;;;;;;;;;;;22.10;80.00;;;;;;5044607;28;1362;-69
2021/08/02 11:31:09;;;;;;;;;;;22.10;80.00;;;;;;5035011;28;1370;-72
2021/08/02 11:33:36;;;;;;;;;;;22.10;79.80;;;;;;5032472;28;1894;-70
2021/08/02 11:36:03;;;;;;;;;;;22.10;79.80;;;;;;5030667;28;1346;-69
2021/08/02 11:38:35;;;;;;;;;;;22.10;79.80;;;;;;5032350;28;1419;-70
2021/08/02 11:41:00;;;;;;;;;;;22.10;79.70;;;;;;5032741;28;1413;-70
2021/08/02 11:43:26;;;;;;;;;;;22.10;80.00;;;;;;5031876;28;1648;-71
2021/08/02 11:45:51;;;;;;;;;;;22.10;80.10;;;;;;5047953;28;1598;-70
2021/08/02 11:48:17;;;;;;;;;;;22.10;80.10;;;;;;5051048;28;1203;-70
2021/08/02 11:50:42;;;;;;;;;;;22.10;80.00;;;;;;5051265;28;1393;-70
2021/08/02 11:53:09;;;;;;;;;;;22.10;80.00;;;;;;5039933;28;1905;-71
2021/08/02 11:55:35;;;;;;;;;;;22.10;80.00;;;;;;5031375;28;1385;-73
2021/08/02 11:58:01;;;;;;;;;;;22.10;80.00;;;;;;5032280;28;1397;-73
2021/08/02 12:00:27;;;;;;;;;;;22.10;80.20;;;;;;5014857;28;1366;-72
2021/08/02 12:02:52;;;;;;;;;;;22.10;80.40;;;;;;5014371;28;1691;-70
2021/08/02 12:05:24;;;;;;;;;;;22.20;80.40;;;;;;5031261;28;1056;-67
2021/08/02 12:07:50;;;;;;;;;;;22.10;79.70;;;;;;5047816;28;3199;-66
2021/08/02 12:10:17;;;;;;;;;;;22.10;79.00;;;;;;5045603;28;1704;-67
2021/08/02 12:12:43;;;;;;;;;;;22.20;78.70;;;;;;5047581;28;1586;-68
2021/08/02 12:15:09;;;;;;;;;;;22.20;76.80;;;;;;5042063;28;1901;-67
2021/08/02 12:17:45;;;;;;;;;;;22.20;75.60;;;;;;5040243;28;1592;-67
2021/08/02 12:20:10;;;;;;;;;;;22.10;74.50;;;;;;5041798;28;1530;-67
2021/08/02 12:22:36;;;;;;;;;;;22.10;71.10;;;;;;5035011;28;1894;-69
2021/08/02 12:25:02;;;;;;;;;;;22.10;68.20;;;;;;5045905;28;1139;-69
2021/08/02 12:27:28;;;;;;;;;;;22.00;69.20;;;;;;5057303;28;1211;-70
2021/08/02 12:29:57;;;;;;;;;;;22.00;70.10;;;;;;5032304;28;1151;-69
2021/08/02 12:32:35;;;;;;;;;;;22.00;69.90;;;;;;5042402;28;1340;-68
2021/08/02 12:35:00;;;;;;;;;;;22.00;70.10;;;;;;5035574;28;1890;-69
2021/08/02 12:37:26;;;;;;;;;;;22.00;70.80;;;;;;5034752;28;1267;-70
2021/08/02 12:39:54;;;;;;;;;;;22.00;71.20;;;;;;5044852;28;1132;-69
2021/08/02 12:42:24;;;;;;;;;;;22.00;71.20;;;;;;5034729;28;1239;-69
2021/08/02 12:44:49;;;;;;;;;;;22.00;71.00;;;;;;5042793;28;1166;-69
2021/08/02 12:47:14;;;;;;;;;;;22.00;70.50;;;;;;5054768;28;1044;-69
2021/08/02 12:49:40;;;;;;;;;;;22.00;69.80;;;;;;5055125;28;1064;-71
2021/08/02 12:52:05;;;;;;;;;;;22.00;69.80;;;;;;5051226;28;1280;-72
2021/08/02 12:54:31;;;;;;;;;;;22.00;69.90;;;;;;5034332;28;1965;-74
2021/08/02 12:56:56;;;;;;;;;;;22.00;69.40;;;;;;5034520;28;1106;-74
2021/08/02 12:59:21;;;;;;;;;;;22.00;69.80;;;;;;5035141;28;1087;-72
2021/08/02 13:01:47;;;;;;;;;;;22.00;69.20;;;;;;5033111;28;1397;-71
2021/08/02 13:04:12;;;;;;;;;;;22.00;69.20;;;;;;5034213;28;1063;-70
2021/08/02 13:06:38;;;;;;;;;;;22.00;67.80;;;;;;5034366;28;1060;-70
2021/08/02 13:09:03;;;;;;;;;;;22.00;68.70;;;;;;5034877;28;1130;-73
2021/08/02 13:11:29;;;;;;;;;;;22.00;68.40;;;;;;5051954;28;1240;-73
2021/08/02 13:13:54;;;;;;;;;;;22.00;66.50;;;;;;5033947;28;1965;-73
2021/08/02 13:16:20;;;;;;;;;;;22.00;67.40;;;;;;5042857;28;1882;-73
2021/08/02 13:18:46;;;;;;;;;;;22.00;66.30;;;;;;5040638;28;1047;-72
2021/08/02 13:21:11;;;;;;;;;;;22.00;67.30;;;;;;5034887;28;1346;-72
2021/08/02 13:26:55;;;;;;;;;;;22.00;68.80;;;;;;5056942;28;880;-72
2021/08/02 13:29:06;;;;;;;;;;;22.00;68.80;;;;;;5037675;28;1087;-72
2021/08/02 13:31:32;;;;;;;;;;;22.00;69.90;;;;;;5034313;28;1245;-72
2021/08/02 13:33:57;;;;;;;;;;;21.90;69.30;;;;;;5032445;28;1895;-72
2021/08/02 13:36:23;;;;;;;;;;;21.90;70.10;;;;;;5032906;28;1195;-72
2021/08/02 13:38:48;;;;;;;;;;;21.90;70.30;;;;;;5033969;28;1126;-71
2021/08/02 13:41:13;;;;;;;;;;;21.90;70.50;;;;;;5034298;28;1362;-72
2021/08/02 13:43:39;;;;;;;;;;;21.90;71.50;;;;;;5034275;28;1075;-71
2021/08/02 13:46:04;;;;;;;;;;;21.90;71.70;;;;;;5052468;28;1190;-71
2021/08/02 13:48:30;;;;;;;;;;;21.90;71.70;;;;;;5054095;28;1111;-72
2021/08/02 13:50:57;;;;;;;;;;;21.90;72.30;;;;;;5052949;28;1195;-72
2021/08/02 13:53:22;;;;;;;;;;;21.90;72.30;;;;;;5040580;28;1973;-74
2021/08/02 13:55:48;;;;;;;;;;;21.90;72.20;;;;;;5033072;28;1164;-72
2021/08/02 13:58:13;;;;;;;;;;;21.90;72.00;;;;;;5044061;28;1215;-72
2021/08/02 14:00:39;;;;;;;;;;;21.90;72.60;;;;;;5045116;28;1170;-72
2021/08/02 14:03:04;;;;;;;;;;;21.90;72.00;;;;;;5032679;28;1271;-72
2021/08/02 14:05:30;;;;;;;;;;;21.90;72.60;;;;;;5032304;28;1092;-72
2021/08/02 14:07:55;;;;;;;;;;;21.90;72.80;;;;;;5032402;28;1088;-72
2021/08/02 14:10:20;;;;;;;;;;;21.90;72.10;;;;;;5032455;28;1169;-73
2021/08/02 14:12:46;;;;;;;;;;;21.90;72.00;;;;;;5033862;28;1281;-73
2021/08/02 14:15:11;;;;;;;;;;;21.90;71.70;;;;;;5033065;28;1898;-71
2021/08/02 14:17:49;;;;;;;;;;;21.90;71.60;;;;;;5032902;28;1147;-73
2021/08/02 14:20:15;;;;;;;;;;;21.90;70.40;;;;;;5039246;28;1092;-72
2021/08/02 14:22:40;;;;;;;;;;;21.90;69.90;;;;;;5053912;28;1253;-72
2021/08/02 14:25:06;;;;;;;;;;;21.90;71.00;;;;;;5052996;28;1031;-72
2021/08/02 14:27:31;;;;;;;;;;;21.90;71.00;;;;;;5051243;28;1064;-73
2021/08/02 14:29:59;;;;;;;;;;;21.90;72.00;;;;;;5033267;28;1150;-72